sensor_id;sensor_type;location;lat;lon;timestamp;P1;durP1;ratioP1;P2;durP2;ratioP2
8895;SDS011;4484;48.928;10.066;2022-10-16T00:01:39;4.90;;;1.30;;
8895;SDS011;4484;48.928;10.066;2022-10-16T00:04:06;1.97;;;1.17;;
8895;SDS011;4484;48.928;10.066;2022-10-16T00:06:33;2.03;;;1.13;;
8895;SDS011;4484;48.928;10.066;2022-10-16T00:09:00;2.23;;;1.40;;
8895;SDS011;4484;48.928;10.066;2022-10-16T00:11:28;4.60;;;1.30;;
8895;SDS011;4484;48.928;10.066;2022-10-16T00:13:57;3.20;;;1.03;;
8895;SDS011;4484;48.928;10.066;2022-10-16T00:16:26;2.17;;;1.50;;
8895;SDS011;4484;48.928;10.066;2022-10-16T00:18:54;4.40;;;2.07;;
8895;SDS011;4484;48.928;10.066;2022-10-16T00:21:23;0.90;;;0.80;;
8895;SDS011;4484;48.928;10.066;2022-10-16T00:23:56;1.10;;;1.00;;
8895;SDS011;4484;48.928;10.066;2022-10-16T00:26:25;1.63;;;1.20;;
8895;SDS011;4484;48.928;10.066;2022-10-16T00:28:53;1.83;;;1.33;;
8895;SDS011;4484;48.928;10.066;2022-10-16T00:31:21;2.87;;;1.63;;
8895;SDS011;4484;48.928;10.066;2022-10-16T00:33:50;2.10;;;1.63;;
8895;SDS011;4484;48.928;10.066;2022-10-16T00:36:19;3.47;;;1.90;;
8895;SDS011;4484;48.928;10.066;2022-10-16T00:38:47;2.20;;;1.83;;
8895;SDS011;4484;48.928;10.066;2022-10-16T00:41:16;1.80;;;1.40;;
8895;SDS011;4484;48.928;10.066;2022-10-16T00:43:45;1.43;;;1.20;;
8895;SDS011;4484;48.928;10.066;2022-10-16T00:48:52;3.83;;;1.10;;
8895;SDS011;4484;48.928;10.066;2022-10-16T00:51:34;1.27;;;1.20;;
8895;SDS011;4484;48.928;10.066;2022-10-16T00:54:22;2.50;;;1.13;;
8895;SDS011;4484;48.928;10.066;2022-10-16T00:56:52;2.30;;;1.30;;
8895;SDS011;4484;48.928;10.066;2022-10-16T00:59:25;6.97;;;1.10;;
8895;SDS011;4484;48.928;10.066;2022-10-16T01:01:55;2.73;;;1.20;;
8895;SDS011;4484;48.928;10.066;2022-10-16T01:04:24;1.17;;;0.90;;
8895;SDS011;4484;48.928;10.066;2022-10-16T01:09:53;0.80;;;0.70;;
8895;SDS011;4484;48.928;10.066;2022-10-16T01:12:41;3.50;;;0.90;;
8895;SDS011;4484;48.928;10.066;2022-10-16T01:15:39;1.93;;;1.17;;
8895;SDS011;4484;48.928;10.066;2022-10-16T01:18:32;3.73;;;0.97;;
8895;SDS011;4484;48.928;10.066;2022-10-16T01:21:13;2.07;;;1.13;;
8895;SDS011;4484;48.928;10.066;2022-10-16T01:29:41;1.73;;;1.00;;
8895;SDS011;4484;48.928;10.066;2022-10-16T01:33:14;1.77;;;1.17;;
8895;SDS011;4484;48.928;10.066;2022-10-16T01:37:58;4.30;;;1.70;;
8895;SDS011;4484;48.928;10.066;2022-10-16T01:40:34;3.47;;;1.70;;
8895;SDS011;4484;48.928;10.066;2022-10-16T01:43:05;3.17;;;1.60;;
8895;SDS011;4484;48.928;10.066;2022-10-16T01:45:36;3.73;;;1.00;;
8895;SDS011;4484;48.928;10.066;2022-10-16T01:48:04;1.03;;;0.93;;
8895;SDS011;4484;48.928;10.066;2022-10-16T01:50:35;1.17;;;1.00;;
8895;SDS011;4484;48.928;10.066;2022-10-16T01:53:06;1.30;;;1.20;;
8895;SDS011;4484;48.928;10.066;2022-10-16T01:55:36;1.10;;;1.00;;
8895;SDS011;4484;48.928;10.066;2022-10-16T01:58:13;1.23;;;1.07;;
8895;SDS011;4484;48.928;10.066;2022-10-16T02:00:41;2.30;;;1.83;;
8895;SDS011;4484;48.928;10.066;2022-10-16T02:03:11;2.00;;;1.63;;
8895;SDS011;4484;48.928;10.066;2022-10-16T02:05:49;1.73;;;1.50;;
8895;SDS011;4484;48.928;10.066;2022-10-16T02:08:19;1.97;;;1.37;;
8895;SDS011;4484;48.928;10.066;2022-10-16T02:10:52;2.57;;;1.33;;
8895;SDS011;4484;48.928;10.066;2022-10-16T02:13:21;1.70;;;1.10;;
8895;SDS011;4484;48.928;10.066;2022-10-16T02:15:54;1.60;;;1.30;;
8895;SDS011;4484;48.928;10.066;2022-10-16T02:18:21;1.63;;;1.50;;
8895;SDS011;4484;48.928;10.066;2022-10-16T02:21:02;2.20;;;1.20;;
8895;SDS011;4484;48.928;10.066;2022-10-16T02:23:59;4.40;;;1.57;;
8895;SDS011;4484;48.928;10.066;2022-10-16T02:26:40;2.20;;;1.33;;
8895;SDS011;4484;48.928;10.066;2022-10-16T02:29:20;1.60;;;1.17;;
8895;SDS011;4484;48.928;10.066;2022-10-16T02:31:51;1.53;;;1.20;;
8895;SDS011;4484;48.928;10.066;2022-10-16T02:34:21;6.43;;;1.20;;
8895;SDS011;4484;48.928;10.066;2022-10-16T02:36:51;2.80;;;1.00;;
8895;SDS011;4484;48.928;10.066;2022-10-16T02:39:19;1.47;;;0.60;;
8895;SDS011;4484;48.928;10.066;2022-10-16T02:41:47;3.50;;;0.80;;
8895;SDS011;4484;48.928;10.066;2022-10-16T02:44:14;2.70;;;0.93;;
8895;SDS011;4484;48.928;10.066;2022-10-16T02:46:41;2.77;;;0.77;;
8895;SDS011;4484;48.928;10.066;2022-10-16T02:49:08;1.00;;;0.90;;
8895;SDS011;4484;48.928;10.066;2022-10-16T02:51:35;1.77;;;0.90;;
8895;SDS011;4484;48.928;10.066;2022-10-16T02:54:02;2.87;;;0.90;;
8895;SDS011;4484;48.928;10.066;2022-10-16T02:56:29;2.80;;;1.00;;
8895;SDS011;4484;48.928;10.066;2022-10-16T02:58:57;1.87;;;0.73;;
8895;SDS011;4484;48.928;10.066;2022-10-16T03:01:24;0.90;;;0.80;;
8895;SDS011;4484;48.928;10.066;2022-10-16T03:03:51;0.70;;;0.70;;
8895;SDS011;4484;48.928;10.066;2022-10-16T03:06:18;3.53;;;1.00;;
8895;SDS011;4484;48.928;10.066;2022-10-16T03:08:45;4.43;;;1.20;;
8895;SDS011;4484;48.928;10.066;2022-10-16T03:11:12;2.23;;;0.87;;
8895;SDS011;4484;48.928;10.066;2022-10-16T03:13:39;2.20;;;0.90;;
8895;SDS011;4484;48.928;10.066;2022-10-16T03:16:06;1.13;;;0.77;;
8895;SDS011;4484;48.928;10.066;2022-10-16T03:18:32;2.50;;;0.77;;
8895;SDS011;4484;48.928;10.066;2022-10-16T03:20:59;2.80;;;1.63;;
8895;SDS011;4484;48.928;10.066;2022-10-16T03:23:26;7.30;;;2.17;;
8895;SDS011;4484;48.928;10.066;2022-10-16T03:25:54;3.60;;;1.00;;
8895;SDS011;4484;48.928;10.066;2022-10-16T03:28:21;1.40;;;0.93;;
8895;SDS011;4484;48.928;10.066;2022-10-16T03:30:48;1.47;;;1.23;;
8895;SDS011;4484;48.928;10.066;2022-10-16T03:33:15;2.70;;;1.10;;
8895;SDS011;4484;48.928;10.066;2022-10-16T03:35:42;4.70;;;0.97;;
8895;SDS011;4484;48.928;10.066;2022-10-16T03:38:09;2.70;;;1.10;;
8895;SDS011;4484;48.928;10.066;2022-10-16T03:40:36;4.80;;;1.10;;
8895;SDS011;4484;48.928;10.066;2022-10-16T03:43:02;2.77;;;1.20;;
8895;SDS011;4484;48.928;10.066;2022-10-16T03:45:30;1.10;;;1.00;;
8895;SDS011;4484;48.928;10.066;2022-10-16T03:47:56;1.67;;;0.90;;
8895;SDS011;4484;48.928;10.066;2022-10-16T03:50:23;3.50;;;1.60;;
8895;SDS011;4484;48.928;10.066;2022-10-16T03:52:50;4.47;;;1.50;;
8895;SDS011;4484;48.928;10.066;2022-10-16T03:55:17;3.20;;;1.47;;
8895;SDS011;4484;48.928;10.066;2022-10-16T03:57:44;1.60;;;1.30;;
8895;SDS011;4484;48.928;10.066;2022-10-16T04:00:11;1.50;;;1.40;;
8895;SDS011;4484;48.928;10.066;2022-10-16T04:02:38;2.20;;;1.20;;
8895;SDS011;4484;48.928;10.066;2022-10-16T04:05:06;2.97;;;1.27;;
8895;SDS011;4484;48.928;10.066;2022-10-16T04:07:33;1.63;;;1.40;;
8895;SDS011;4484;48.928;10.066;2022-10-16T04:10:01;1.63;;;1.33;;
8895;SDS011;4484;48.928;10.066;2022-10-16T04:12:28;1.07;;;1.00;;
8895;SDS011;4484;48.928;10.066;2022-10-16T04:14:55;1.10;;;1.00;;
8895;SDS011;4484;48.928;10.066;2022-10-16T04:17:22;1.30;;;1.00;;
8895;SDS011;4484;48.928;10.066;2022-10-16T04:19:49;0.90;;;0.90;;
8895;SDS011;4484;48.928;10.066;2022-10-16T04:22:16;1.07;;;0.93;;
8895;SDS011;4484;48.928;10.066;2022-10-16T04:24:43;3.70;;;1.20;;
8895;SDS011;4484;48.928;10.066;2022-10-16T04:27:10;0.90;;;0.90;;
8895;SDS011;4484;48.928;10.066;2022-10-16T04:29:37;1.30;;;1.10;;
8895;SDS011;4484;48.928;10.066;2022-10-16T04:32:04;1.00;;;0.90;;
8895;SDS011;4484;48.928;10.066;2022-10-16T04:34:31;0.90;;;0.90;;
8895;SDS011;4484;48.928;10.066;2022-10-16T04:36:57;2.50;;;0.90;;
8895;SDS011;4484;48.928;10.066;2022-10-16T04:39:24;3.87;;;1.50;;
8895;SDS011;4484;48.928;10.066;2022-10-16T04:41:51;1.87;;;1.20;;
8895;SDS011;4484;48.928;10.066;2022-10-16T04:44:18;1.40;;;1.20;;
8895;SDS011;4484;48.928;10.066;2022-10-16T04:46:45;1.30;;;1.07;;
8895;SDS011;4484;48.928;10.066;2022-10-16T04:49:12;1.17;;;0.80;;
8895;SDS011;4484;48.928;10.066;2022-10-16T04:51:39;2.57;;;2.00;;
8895;SDS011;4484;48.928;10.066;2022-10-16T04:54:06;3.23;;;2.07;;
8895;SDS011;4484;48.928;10.066;2022-10-16T04:56:34;2.53;;;2.00;;
8895;SDS011;4484;48.928;10.066;2022-10-16T04:59:09;2.07;;;1.80;;
8895;SDS011;4484;48.928;10.066;2022-10-16T05:01:36;1.60;;;1.50;;
8895;SDS011;4484;48.928;10.066;2022-10-16T05:04:03;1.43;;;1.33;;
8895;SDS011;4484;48.928;10.066;2022-10-16T05:06:30;1.40;;;1.30;;
8895;SDS011;4484;48.928;10.066;2022-10-16T05:08:57;2.10;;;1.60;;
8895;SDS011;4484;48.928;10.066;2022-10-16T05:11:24;1.57;;;1.47;;
8895;SDS011;4484;48.928;10.066;2022-10-16T05:13:51;1.37;;;1.20;;
8895;SDS011;4484;48.928;10.066;2022-10-16T05:16:21;3.07;;;1.50;;
8895;SDS011;4484;48.928;10.066;2022-10-16T05:18:48;1.50;;;1.40;;
8895;SDS011;4484;48.928;10.066;2022-10-16T05:21:18;6.90;;;1.53;;
8895;SDS011;4484;48.928;10.066;2022-10-16T05:23:45;2.50;;;1.83;;
8895;SDS011;4484;48.928;10.066;2022-10-16T05:26:12;1.77;;;1.60;;
8895;SDS011;4484;48.928;10.066;2022-10-16T05:28:39;3.40;;;1.50;;
8895;SDS011;4484;48.928;10.066;2022-10-16T05:31:07;2.20;;;1.20;;
8895;SDS011;4484;48.928;10.066;2022-10-16T05:33:35;4.30;;;1.70;;
8895;SDS011;4484;48.928;10.066;2022-10-16T05:36:03;1.73;;;1.60;;
8895;SDS011;4484;48.928;10.066;2022-10-16T05:38:31;1.40;;;1.30;;
8895;SDS011;4484;48.928;10.066;2022-10-16T05:40:58;2.40;;;1.50;;
8895;SDS011;4484;48.928;10.066;2022-10-16T05:43:26;1.70;;;1.37;;
8895;SDS011;4484;48.928;10.066;2022-10-16T05:45:55;1.30;;;1.20;;
8895;SDS011;4484;48.928;10.066;2022-10-16T05:48:23;1.03;;;0.93;;
8895;SDS011;4484;48.928;10.066;2022-10-16T05:51:00;1.13;;;1.03;;
8895;SDS011;4484;48.928;10.066;2022-10-16T05:53:33;2.07;;;1.03;;
8895;SDS011;4484;48.928;10.066;2022-10-16T05:56:02;1.30;;;1.00;;
8895;SDS011;4484;48.928;10.066;2022-10-16T05:58:30;1.30;;;1.10;;
8895;SDS011;4484;48.928;10.066;2022-10-16T06:01:00;1.87;;;1.17;;
8895;SDS011;4484;48.928;10.066;2022-10-16T06:03:29;3.03;;;1.40;;
8895;SDS011;4484;48.928;10.066;2022-10-16T06:05:56;2.60;;;1.73;;
8895;SDS011;4484;48.928;10.066;2022-10-16T06:08:24;2.07;;;1.60;;
8895;SDS011;4484;48.928;10.066;2022-10-16T06:11:04;2.17;;;1.90;;
8895;SDS011;4484;48.928;10.066;2022-10-16T06:13:33;3.40;;;1.87;;
8895;SDS011;4484;48.928;10.066;2022-10-16T06:16:00;1.90;;;1.70;;
8895;SDS011;4484;48.928;10.066;2022-10-16T06:18:28;4.07;;;1.77;;
8895;SDS011;4484;48.928;10.066;2022-10-16T06:20:56;3.27;;;1.67;;
8895;SDS011;4484;48.928;10.066;2022-10-16T06:23:23;3.13;;;1.80;;
8895;SDS011;4484;48.928;10.066;2022-10-16T06:25:50;1.90;;;1.70;;
8895;SDS011;4484;48.928;10.066;2022-10-16T06:28:17;2.37;;;1.97;;
8895;SDS011;4484;48.928;10.066;2022-10-16T06:30:44;1.80;;;1.70;;
8895;SDS011;4484;48.928;10.066;2022-10-16T06:33:12;3.13;;;1.50;;
8895;SDS011;4484;48.928;10.066;2022-10-16T06:35:39;2.07;;;1.80;;
8895;SDS011;4484;48.928;10.066;2022-10-16T06:38:06;3.73;;;2.43;;
8895;SDS011;4484;48.928;10.066;2022-10-16T06:40:33;2.30;;;1.73;;
8895;SDS011;4484;48.928;10.066;2022-10-16T06:43:00;3.60;;;2.30;;
8895;SDS011;4484;48.928;10.066;2022-10-16T06:45:27;5.03;;;3.80;;
8895;SDS011;4484;48.928;10.066;2022-10-16T06:47:54;3.00;;;2.70;;
8895;SDS011;4484;48.928;10.066;2022-10-16T06:50:21;5.60;;;4.37;;
8895;SDS011;4484;48.928;10.066;2022-10-16T06:52:48;9.27;;;8.33;;
8895;SDS011;4484;48.928;10.066;2022-10-16T06:55:15;11.30;;;10.10;;
8895;SDS011;4484;48.928;10.066;2022-10-16T07:00:13;9.73;;;5.87;;
8895;SDS011;4484;48.928;10.066;2022-10-16T07:02:40;3.47;;;2.87;;
8895;SDS011;4484;48.928;10.066;2022-10-16T07:05:08;3.70;;;2.50;;
8895;SDS011;4484;48.928;10.066;2022-10-16T07:07:35;4.73;;;3.90;;
8895;SDS011;4484;48.928;10.066;2022-10-16T07:12:54;6.80;;;2.90;;
8895;SDS011;4484;48.928;10.066;2022-10-16T07:15:22;5.67;;;1.97;;
8895;SDS011;4484;48.928;10.066;2022-10-16T07:17:49;2.40;;;1.43;;
8895;SDS011;4484;48.928;10.066;2022-10-16T07:20:16;6.83;;;1.70;;
8895;SDS011;4484;48.928;10.066;2022-10-16T07:22:43;2.47;;;1.40;;
8895;SDS011;4484;48.928;10.066;2022-10-16T07:25:10;1.97;;;1.50;;
8895;SDS011;4484;48.928;10.066;2022-10-16T07:27:37;2.23;;;1.33;;
8895;SDS011;4484;48.928;10.066;2022-10-16T07:30:04;2.13;;;1.43;;
8895;SDS011;4484;48.928;10.066;2022-10-16T07:32:34;6.80;;;5.13;;
8895;SDS011;4484;48.928;10.066;2022-10-16T07:35:01;3.80;;;2.20;;
8895;SDS011;4484;48.928;10.066;2022-10-16T07:37:29;3.83;;;1.57;;
8895;SDS011;4484;48.928;10.066;2022-10-16T07:39:56;3.10;;;1.80;;
8895;SDS011;4484;48.928;10.066;2022-10-16T07:42:23;2.47;;;1.70;;
8895;SDS011;4484;48.928;10.066;2022-10-16T07:44:50;1.37;;;1.27;;
8895;SDS011;4484;48.928;10.066;2022-10-16T07:47:17;3.20;;;1.40;;
8895;SDS011;4484;48.928;10.066;2022-10-16T07:49:44;1.57;;;1.17;;
8895;SDS011;4484;48.928;10.066;2022-10-16T07:52:11;1.60;;;1.20;;
8895;SDS011;4484;48.928;10.066;2022-10-16T07:54:38;1.47;;;1.20;;
8895;SDS011;4484;48.928;10.066;2022-10-16T07:57:05;1.20;;;1.03;;
8895;SDS011;4484;48.928;10.066;2022-10-16T07:59:32;1.97;;;1.07;;
8895;SDS011;4484;48.928;10.066;2022-10-16T08:01:59;1.23;;;1.13;;
8895;SDS011;4484;48.928;10.066;2022-10-16T08:04:26;2.17;;;1.20;;
8895;SDS011;4484;48.928;10.066;2022-10-16T08:06:52;1.17;;;0.90;;
8895;SDS011;4484;48.928;10.066;2022-10-16T08:09:20;1.13;;;1.03;;
8895;SDS011;4484;48.928;10.066;2022-10-16T08:11:47;0.70;;;0.70;;
8895;SDS011;4484;48.928;10.066;2022-10-16T08:14:14;4.77;;;1.60;;
8895;SDS011;4484;48.928;10.066;2022-10-16T08:16:41;1.30;;;1.00;;
8895;SDS011;4484;48.928;10.066;2022-10-16T08:19:08;7.17;;;1.30;;
8895;SDS011;4484;48.928;10.066;2022-10-16T08:21:35;1.10;;;1.00;;
8895;SDS011;4484;48.928;10.066;2022-10-16T08:24:02;1.00;;;0.90;;
8895;SDS011;4484;48.928;10.066;2022-10-16T08:26:29;1.30;;;1.20;;
8895;SDS011;4484;48.928;10.066;2022-10-16T08:28:56;1.00;;;0.93;;
8895;SDS011;4484;48.928;10.066;2022-10-16T08:31:23;4.07;;;1.47;;
8895;SDS011;4484;48.928;10.066;2022-10-16T08:33:50;2.47;;;1.20;;
8895;SDS011;4484;48.928;10.066;2022-10-16T08:36:18;1.60;;;1.30;;
8895;SDS011;4484;48.928;10.066;2022-10-16T08:38:49;2.30;;;1.50;;
8895;SDS011;4484;48.928;10.066;2022-10-16T08:41:23;1.70;;;1.23;;
8895;SDS011;4484;48.928;10.066;2022-10-16T08:46:59;1.60;;;1.00;;
8895;SDS011;4484;48.928;10.066;2022-10-16T08:49:35;1.03;;;0.83;;
8895;SDS011;4484;48.928;10.066;2022-10-16T08:52:02;1.37;;;1.00;;
8895;SDS011;4484;48.928;10.066;2022-10-16T08:54:31;1.17;;;1.00;;
8895;SDS011;4484;48.928;10.066;2022-10-16T08:57:11;5.53;;;1.47;;
8895;SDS011;4484;48.928;10.066;2022-10-16T08:59:39;2.90;;;1.90;;
8895;SDS011;4484;48.928;10.066;2022-10-16T09:02:27;2.97;;;1.50;;
8895;SDS011;4484;48.928;10.066;2022-10-16T09:05:08;2.77;;;0.93;;
8895;SDS011;4484;48.928;10.066;2022-10-16T09:10:28;2.30;;;1.20;;
8895;SDS011;4484;48.928;10.066;2022-10-16T09:13:19;4.60;;;1.50;;
8895;SDS011;4484;48.928;10.066;2022-10-16T09:16:19;3.23;;;1.33;;
8895;SDS011;4484;48.928;10.066;2022-10-16T09:21:49;2.13;;;1.37;;
8895;SDS011;4484;48.928;10.066;2022-10-16T09:24:18;3.47;;;1.37;;
8895;SDS011;4484;48.928;10.066;2022-10-16T09:26:52;6.43;;;1.40;;
8895;SDS011;4484;48.928;10.066;2022-10-16T09:29:20;4.37;;;1.83;;
8895;SDS011;4484;48.928;10.066;2022-10-16T09:31:48;3.40;;;2.83;;
8895;SDS011;4484;48.928;10.066;2022-10-16T09:34:26;9.07;;;4.73;;
8895;SDS011;4484;48.928;10.066;2022-10-16T09:37:04;6.10;;;3.13;;
8895;SDS011;4484;48.928;10.066;2022-10-16T09:39:44;5.57;;;3.90;;
8895;SDS011;4484;48.928;10.066;2022-10-16T09:42:20;2.70;;;2.20;;
8895;SDS011;4484;48.928;10.066;2022-10-16T09:44:50;3.30;;;2.40;;
8895;SDS011;4484;48.928;10.066;2022-10-16T09:47:18;3.60;;;2.90;;
8895;SDS011;4484;48.928;10.066;2022-10-16T09:52:28;3.17;;;1.50;;
8895;SDS011;4484;48.928;10.066;2022-10-16T09:54:56;2.33;;;1.70;;
8895;SDS011;4484;48.928;10.066;2022-10-16T09:57:25;1.40;;;1.10;;
8895;SDS011;4484;48.928;10.066;2022-10-16T09:59:54;3.03;;;1.40;;
8895;SDS011;4484;48.928;10.066;2022-10-16T10:02:28;1.57;;;1.23;;
8895;SDS011;4484;48.928;10.066;2022-10-16T10:04:56;5.07;;;1.30;;
8895;SDS011;4484;48.928;10.066;2022-10-16T10:07:27;1.00;;;0.90;;
8895;SDS011;4484;48.928;10.066;2022-10-16T10:09:59;1.23;;;1.03;;
8895;SDS011;4484;48.928;10.066;2022-10-16T10:12:32;3.70;;;0.97;;
8895;SDS011;4484;48.928;10.066;2022-10-16T10:15:04;3.37;;;1.47;;
8895;SDS011;4484;48.928;10.066;2022-10-16T10:17:45;3.57;;;1.20;;
8895;SDS011;4484;48.928;10.066;2022-10-16T10:20:35;2.03;;;1.77;;
8895;SDS011;4484;48.928;10.066;2022-10-16T10:23:19;1.80;;;1.35;;
8895;SDS011;4484;48.928;10.066;2022-10-16T10:39:48;3.07;;;1.20;;
8895;SDS011;4484;48.928;10.066;2022-10-16T10:45:26;3.53;;;1.60;;
8895;SDS011;4484;48.928;10.066;2022-10-16T10:50:51;5.38;;;1.30;;
8895;SDS011;4484;48.928;10.066;2022-10-16T10:56:28;1.88;;;0.90;;
8895;SDS011;4484;48.928;10.066;2022-10-16T11:07:57;2.53;;;1.00;;
8895;SDS011;4484;48.928;10.066;2022-10-16T11:10:28;2.00;;;0.68;;
8895;SDS011;4484;48.928;10.066;2022-10-16T11:15:43;3.00;;;0.60;;
8895;SDS011;4484;48.928;10.066;2022-10-16T11:18:16;1.77;;;0.80;;
8895;SDS011;4484;48.928;10.066;2022-10-16T11:20:56;1.05;;;0.70;;
8895;SDS011;4484;48.928;10.066;2022-10-16T11:23:28;1.90;;;0.90;;
8895;SDS011;4484;48.928;10.066;2022-10-16T11:26:04;3.17;;;0.80;;
8895;SDS011;4484;48.928;10.066;2022-10-16T11:28:42;0.65;;;0.60;;
8895;SDS011;4484;48.928;10.066;2022-10-16T11:36:33;4.03;;;1.30;;
8895;SDS011;4484;48.928;10.066;2022-10-16T11:39:16;8.45;;;1.13;;
8895;SDS011;4484;48.928;10.066;2022-10-16T11:41:51;1.60;;;0.80;;
8895;SDS011;4484;48.928;10.066;2022-10-16T11:50:29;3.60;;;0.88;;
8895;SDS011;4484;48.928;10.066;2022-10-16T11:55:47;0.70;;;0.70;;
8895;SDS011;4484;48.928;10.066;2022-10-16T11:58:34;2.65;;;0.88;;
8895;SDS011;4484;48.928;10.066;2022-10-16T12:01:27;0.95;;;0.70;;
8895;SDS011;4484;48.928;10.066;2022-10-16T12:08:54;0.85;;;0.80;;
8895;SDS011;4484;48.928;10.066;2022-10-16T12:13:51;1.15;;;0.80;;
8895;SDS011;4484;48.928;10.066;2022-10-16T12:16:22;0.70;;;0.63;;
8895;SDS011;4484;48.928;10.066;2022-10-16T12:18:49;2.67;;;0.93;;
8895;SDS011;4484;48.928;10.066;2022-10-16T12:21:40;0.85;;;0.60;;
8895;SDS011;4484;48.928;10.066;2022-10-16T12:26:48;0.70;;;0.70;;
8895;SDS011;4484;48.928;10.066;2022-10-16T12:29:28;2.33;;;1.50;;
8895;SDS011;4484;48.928;10.066;2022-10-16T12:32:03;1.80;;;0.70;;
8895;SDS011;4484;48.928;10.066;2022-10-16T12:39:54;0.60;;;0.55;;
8895;SDS011;4484;48.928;10.066;2022-10-16T12:42:30;1.83;;;0.73;;
8895;SDS011;4484;48.928;10.066;2022-10-16T12:45:00;6.05;;;0.90;;
8895;SDS011;4484;48.928;10.066;2022-10-16T12:47:47;1.40;;;0.70;;
8895;SDS011;4484;48.928;10.066;2022-10-16T12:50:26;1.55;;;0.60;;
8895;SDS011;4484;48.928;10.066;2022-10-16T12:53:02;0.50;;;0.50;;
8895;SDS011;4484;48.928;10.066;2022-10-16T12:55:42;0.88;;;0.70;;
8895;SDS011;4484;48.928;10.066;2022-10-16T13:01:29;0.68;;;0.43;;
8895;SDS011;4484;48.928;10.066;2022-10-16T13:04:13;0.95;;;0.77;;
8895;SDS011;4484;48.928;10.066;2022-10-16T13:07:03;2.33;;;0.70;;
8895;SDS011;4484;48.928;10.066;2022-10-16T13:10:10;2.95;;;0.98;;
8895;SDS011;4484;48.928;10.066;2022-10-16T13:30:19;0.95;;;0.80;;
8895;SDS011;4484;48.928;10.066;2022-10-16T13:33:10;2.40;;;0.75;;
8895;SDS011;4484;48.928;10.066;2022-10-16T13:35:57;1.38;;;0.70;;
8895;SDS011;4484;48.928;10.066;2022-10-16T13:38:26;1.17;;;0.70;;
8895;SDS011;4484;48.928;10.066;2022-10-16T13:43:27;5.45;;;0.90;;
8895;SDS011;4484;48.928;10.066;2022-10-16T13:46:14;0.65;;;0.65;;
8895;SDS011;4484;48.928;10.066;2022-10-16T13:48:42;1.45;;;0.75;;
8895;SDS011;4484;48.928;10.066;2022-10-16T13:51:14;2.45;;;0.93;;
8895;SDS011;4484;48.928;10.066;2022-10-16T13:53:43;1.27;;;0.90;;
8895;SDS011;4484;48.928;10.066;2022-10-16T13:56:12;0.90;;;0.90;;
8895;SDS011;4484;48.928;10.066;2022-10-16T13:58:41;1.48;;;0.75;;
8895;SDS011;4484;48.928;10.066;2022-10-16T14:01:15;0.85;;;0.80;;
8895;SDS011;4484;48.928;10.066;2022-10-16T14:03:45;5.28;;;1.30;;
8895;SDS011;4484;48.928;10.066;2022-10-16T14:06:14;0.93;;;0.73;;
8895;SDS011;4484;48.928;10.066;2022-10-16T14:08:46;1.38;;;0.75;;
8895;SDS011;4484;48.928;10.066;2022-10-16T14:11:48;1.58;;;0.77;;
8895;SDS011;4484;48.928;10.066;2022-10-16T14:14:23;2.45;;;0.70;;
8895;SDS011;4484;48.928;10.066;2022-10-16T14:16:51;1.35;;;0.85;;
8895;SDS011;4484;48.928;10.066;2022-10-16T14:19:21;1.17;;;0.57;;
8895;SDS011;4484;48.928;10.066;2022-10-16T14:21:50;2.00;;;0.80;;
8895;SDS011;4484;48.928;10.066;2022-10-16T14:26:57;0.68;;;0.65;;
8895;SDS011;4484;48.928;10.066;2022-10-16T14:29:25;0.73;;;0.60;;
8895;SDS011;4484;48.928;10.066;2022-10-16T14:31:58;0.88;;;0.70;;
8895;SDS011;4484;48.928;10.066;2022-10-16T14:34:34;0.93;;;0.50;;
8895;SDS011;4484;48.928;10.066;2022-10-16T14:37:20;2.20;;;0.63;;
8895;SDS011;4484;48.928;10.066;2022-10-16T14:39:55;2.20;;;0.80;;
8895;SDS011;4484;48.928;10.066;2022-10-16T14:42:23;2.80;;;0.68;;
8895;SDS011;4484;48.928;10.066;2022-10-16T14:44:52;0.65;;;0.65;;
8895;SDS011;4484;48.928;10.066;2022-10-16T14:47:23;2.28;;;0.75;;
8895;SDS011;4484;48.928;10.066;2022-10-16T14:49:53;1.33;;;0.60;;
8895;SDS011;4484;48.928;10.066;2022-10-16T14:52:22;0.52;;;0.52;;
8895;SDS011;4484;48.928;10.066;2022-10-16T14:54:49;1.17;;;0.50;;
8895;SDS011;4484;48.928;10.066;2022-10-16T14:57:22;1.45;;;0.60;;
8895;SDS011;4484;48.928;10.066;2022-10-16T14:59:52;2.30;;;0.70;;
8895;SDS011;4484;48.928;10.066;2022-10-16T15:07:53;3.00;;;1.08;;
8895;SDS011;4484;48.928;10.066;2022-10-16T15:10:22;1.42;;;1.00;;
8895;SDS011;4484;48.928;10.066;2022-10-16T15:12:50;0.90;;;0.70;;
8895;SDS011;4484;48.928;10.066;2022-10-16T15:17:56;0.70;;;0.70;;
8895;SDS011;4484;48.928;10.066;2022-10-16T15:20:24;1.20;;;0.90;;
8895;SDS011;4484;48.928;10.066;2022-10-16T15:22:51;0.65;;;0.60;;
8895;SDS011;4484;48.928;10.066;2022-10-16T15:25:41;0.80;;;0.57;;
8895;SDS011;4484;48.928;10.066;2022-10-16T15:28:08;0.70;;;0.60;;
8895;SDS011;4484;48.928;10.066;2022-10-16T15:30:37;0.95;;;0.65;;
8895;SDS011;4484;48.928;10.066;2022-10-16T15:33:04;0.98;;;0.60;;
8895;SDS011;4484;48.928;10.066;2022-10-16T15:35:37;0.75;;;0.75;;
8895;SDS011;4484;48.928;10.066;2022-10-16T15:38:05;2.17;;;1.30;;
8895;SDS011;4484;48.928;10.066;2022-10-16T15:40:32;3.78;;;1.20;;
8895;SDS011;4484;48.928;10.066;2022-10-16T15:42:59;1.15;;;1.05;;
8895;SDS011;4484;48.928;10.066;2022-10-16T15:45:26;1.67;;;1.20;;
8895;SDS011;4484;48.928;10.066;2022-10-16T15:47:52;1.77;;;0.85;;
8895;SDS011;4484;48.928;10.066;2022-10-16T15:50:19;3.25;;;0.85;;
8895;SDS011;4484;48.928;10.066;2022-10-16T15:52:46;1.33;;;1.20;;
8895;SDS011;4484;48.928;10.066;2022-10-16T15:55:14;5.40;;;1.83;;
8895;SDS011;4484;48.928;10.066;2022-10-16T15:57:41;2.03;;;1.23;;
8895;SDS011;4484;48.928;10.066;2022-10-16T16:00:14;1.23;;;1.00;;
8895;SDS011;4484;48.928;10.066;2022-10-16T16:02:43;1.88;;;1.65;;
8895;SDS011;4484;48.928;10.066;2022-10-16T16:05:15;1.90;;;1.60;;
8895;SDS011;4484;48.928;10.066;2022-10-16T16:07:42;2.08;;;1.50;;
8895;SDS011;4484;48.928;10.066;2022-10-16T16:10:09;4.00;;;1.35;;
8895;SDS011;4484;48.928;10.066;2022-10-16T16:12:38;1.60;;;1.42;;
8895;SDS011;4484;48.928;10.066;2022-10-16T16:15:06;1.85;;;1.27;;
8895;SDS011;4484;48.928;10.066;2022-10-16T16:17:35;2.22;;;1.20;;
8895;SDS011;4484;48.928;10.066;2022-10-16T16:20:04;2.70;;;1.55;;
8895;SDS011;4484;48.928;10.066;2022-10-16T16:22:31;1.80;;;1.60;;
8895;SDS011;4484;48.928;10.066;2022-10-16T16:24:58;1.40;;;1.30;;
8895;SDS011;4484;48.928;10.066;2022-10-16T16:27:26;5.07;;;2.92;;
8895;SDS011;4484;48.928;10.066;2022-10-16T16:29:56;7.00;;;4.18;;
8895;SDS011;4484;48.928;10.066;2022-10-16T16:32:23;6.88;;;3.72;;
8895;SDS011;4484;48.928;10.066;2022-10-16T16:34:51;5.93;;;3.22;;
8895;SDS011;4484;48.928;10.066;2022-10-16T16:37:17;4.75;;;2.05;;
8895;SDS011;4484;48.928;10.066;2022-10-16T16:39:44;4.37;;;1.80;;
8895;SDS011;4484;48.928;10.066;2022-10-16T16:42:11;2.85;;;1.75;;
8895;SDS011;4484;48.928;10.066;2022-10-16T16:44:38;2.25;;;1.90;;
8895;SDS011;4484;48.928;10.066;2022-10-16T16:47:05;2.03;;;1.80;;
8895;SDS011;4484;48.928;10.066;2022-10-16T16:49:32;2.40;;;1.77;;
8895;SDS011;4484;48.928;10.066;2022-10-16T16:51:59;3.60;;;2.00;;
8895;SDS011;4484;48.928;10.066;2022-10-16T16:54:26;3.03;;;1.80;;
8895;SDS011;4484;48.928;10.066;2022-10-16T16:56:53;3.73;;;1.80;;
8895;SDS011;4484;48.928;10.066;2022-10-16T16:59:21;2.13;;;1.63;;
8895;SDS011;4484;48.928;10.066;2022-10-16T17:01:48;3.00;;;1.73;;
8895;SDS011;4484;48.928;10.066;2022-10-16T17:04:22;1.87;;;1.60;;
8895;SDS011;4484;48.928;10.066;2022-10-16T17:06:49;2.30;;;1.80;;
8895;SDS011;4484;48.928;10.066;2022-10-16T17:09:15;1.93;;;1.70;;
8895;SDS011;4484;48.928;10.066;2022-10-16T17:11:43;2.57;;;1.60;;
8895;SDS011;4484;48.928;10.066;2022-10-16T17:14:11;5.17;;;1.83;;
8895;SDS011;4484;48.928;10.066;2022-10-16T17:16:39;3.03;;;1.40;;
8895;SDS011;4484;48.928;10.066;2022-10-16T17:19:12;1.67;;;1.30;;
8895;SDS011;4484;48.928;10.066;2022-10-16T17:21:42;3.73;;;1.43;;
8895;SDS011;4484;48.928;10.066;2022-10-16T17:24:13;1.47;;;1.30;;
8895;SDS011;4484;48.928;10.066;2022-10-16T17:29:23;3.83;;;1.20;;
8895;SDS011;4484;48.928;10.066;2022-10-16T17:31:56;7.60;;;1.30;;
8895;SDS011;4484;48.928;10.066;2022-10-16T17:34:24;1.37;;;1.27;;